sensor_id;sensor_type;location;lat;lon;timestamp;P1;durP1;ratioP1;P2;durP2;ratioP2
77061;SDS011;65989;51.686;5.138;2023-12-07T00:01:29;19.37;;;12.57;;
77061;SDS011;65989;51.686;5.138;2023-12-07T00:03:54;17.40;;;11.35;;
77061;SDS011;65989;51.686;5.138;2023-12-07T00:06:20;17.90;;;11.33;;
77061;SDS011;65989;51.686;5.138;2023-12-07T00:08:45;17.97;;;11.43;;
77061;SDS011;65989;51.686;5.138;2023-12-07T00:11:10;21.83;;;11.03;;
77061;SDS011;65989;51.686;5.138;2023-12-07T00:13:36;18.50;;;11.40;;
77061;SDS011;65989;51.686;5.138;2023-12-07T00:16:01;20.08;;;11.30;;
77061;SDS011;65989;51.686;5.138;2023-12-07T00:18:27;18.17;;;10.73;;
77061;SDS011;65989;51.686;5.138;2023-12-07T00:20:52;17.47;;;10.40;;
77061;SDS011;65989;51.686;5.138;2023-12-07T00:23:17;19.27;;;10.87;;
77061;SDS011;65989;51.686;5.138;2023-12-07T00:25:43;16.70;;;10.63;;
77061;SDS011;65989;51.686;5.138;2023-12-07T00:28:10;17.23;;;10.90;;
77061;SDS011;65989;51.686;5.138;2023-12-07T00:30:36;17.92;;;10.40;;
77061;SDS011;65989;51.686;5.138;2023-12-07T00:33:02;17.00;;;11.43;;
77061;SDS011;65989;51.686;5.138;2023-12-07T00:35:27;19.10;;;10.70;;
77061;SDS011;65989;51.686;5.138;2023-12-07T00:37:54;16.52;;;11.40;;
77061;SDS011;65989;51.686;5.138;2023-12-07T00:40:23;16.40;;;10.82;;
77061;SDS011;65989;51.686;5.138;2023-12-07T00:42:49;16.65;;;10.23;;
77061;SDS011;65989;51.686;5.138;2023-12-07T00:45:14;19.80;;;10.60;;
77061;SDS011;65989;51.686;5.138;2023-12-07T00:47:43;18.02;;;10.10;;
77061;SDS011;65989;51.686;5.138;2023-12-07T00:50:08;16.90;;;10.67;;
77061;SDS011;65989;51.686;5.138;2023-12-07T00:52:37;17.83;;;10.52;;
77061;SDS011;65989;51.686;5.138;2023-12-07T00:55:02;17.53;;;10.30;;
77061;SDS011;65989;51.686;5.138;2023-12-07T00:57:28;16.87;;;10.97;;
77061;SDS011;65989;51.686;5.138;2023-12-07T00:59:53;16.90;;;10.80;;
77061;SDS011;65989;51.686;5.138;2023-12-07T01:02:18;16.17;;;10.33;;
77061;SDS011;65989;51.686;5.138;2023-12-07T01:04:44;16.37;;;10.00;;
77061;SDS011;65989;51.686;5.138;2023-12-07T01:07:10;18.02;;;10.35;;
77061;SDS011;65989;51.686;5.138;2023-12-07T01:09:35;15.73;;;10.47;;
77061;SDS011;65989;51.686;5.138;2023-12-07T01:12:01;16.27;;;10.27;;
77061;SDS011;65989;51.686;5.138;2023-12-07T01:14:26;19.80;;;10.93;;
77061;SDS011;65989;51.686;5.138;2023-12-07T01:16:52;17.13;;;10.77;;
77061;SDS011;65989;51.686;5.138;2023-12-07T01:19:17;17.50;;;11.10;;
77061;SDS011;65989;51.686;5.138;2023-12-07T01:21:42;17.37;;;10.73;;
77061;SDS011;65989;51.686;5.138;2023-12-07T01:24:08;19.47;;;10.60;;
77061;SDS011;65989;51.686;5.138;2023-12-07T01:26:34;21.00;;;10.60;;
77061;SDS011;65989;51.686;5.138;2023-12-07T01:28:59;15.50;;;10.30;;
77061;SDS011;65989;51.686;5.138;2023-12-07T01:31:25;16.93;;;10.17;;
77061;SDS011;65989;51.686;5.138;2023-12-07T01:33:50;16.50;;;10.27;;
77061;SDS011;65989;51.686;5.138;2023-12-07T01:36:15;18.00;;;10.63;;
77061;SDS011;65989;51.686;5.138;2023-12-07T01:38:41;19.27;;;10.03;;
77061;SDS011;65989;51.686;5.138;2023-12-07T01:41:08;15.18;;;10.13;;
77061;SDS011;65989;51.686;5.138;2023-12-07T01:43:34;16.10;;;10.20;;
77061;SDS011;65989;51.686;5.138;2023-12-07T01:45:59;16.40;;;10.35;;
77061;SDS011;65989;51.686;5.138;2023-12-07T01:48:25;17.47;;;10.00;;
77061;SDS011;65989;51.686;5.138;2023-12-07T01:50:52;16.52;;;9.40;;
77061;SDS011;65989;51.686;5.138;2023-12-07T01:53:19;16.73;;;10.38;;
77061;SDS011;65989;51.686;5.138;2023-12-07T01:55:46;16.13;;;10.32;;
77061;SDS011;65989;51.686;5.138;2023-12-07T01:58:12;16.57;;;10.07;;
77061;SDS011;65989;51.686;5.138;2023-12-07T02:00:41;15.82;;;10.38;;
77061;SDS011;65989;51.686;5.138;2023-12-07T02:03:07;14.20;;;9.17;;
77061;SDS011;65989;51.686;5.138;2023-12-07T02:05:32;17.90;;;10.13;;
77061;SDS011;65989;51.686;5.138;2023-12-07T02:07:58;16.53;;;9.90;;
77061;SDS011;65989;51.686;5.138;2023-12-07T02:10:24;18.87;;;10.33;;
77061;SDS011;65989;51.686;5.138;2023-12-07T02:12:49;16.98;;;10.38;;
77061;SDS011;65989;51.686;5.138;2023-12-07T02:15:16;17.02;;;10.18;;
77061;SDS011;65989;51.686;5.138;2023-12-07T02:20:43;17.63;;;10.73;;
77061;SDS011;65989;51.686;5.138;2023-12-07T02:23:14;18.90;;;10.77;;
77061;SDS011;65989;51.686;5.138;2023-12-07T02:25:45;16.63;;;11.00;;
77061;SDS011;65989;51.686;5.138;2023-12-07T02:28:16;17.40;;;10.95;;
77061;SDS011;65989;51.686;5.138;2023-12-07T02:30:42;16.63;;;10.77;;
77061;SDS011;65989;51.686;5.138;2023-12-07T02:33:08;17.50;;;11.13;;
77061;SDS011;65989;51.686;5.138;2023-12-07T02:35:34;19.90;;;10.97;;
77061;SDS011;65989;51.686;5.138;2023-12-07T02:38:01;19.45;;;11.18;;
77061;SDS011;65989;51.686;5.138;2023-12-07T02:40:27;18.17;;;10.95;;
77061;SDS011;65989;51.686;5.138;2023-12-07T02:42:53;16.50;;;10.02;;
77061;SDS011;65989;51.686;5.138;2023-12-07T02:45:19;20.00;;;10.73;;
77061;SDS011;65989;51.686;5.138;2023-12-07T02:47:45;17.85;;;10.95;;
77061;SDS011;65989;51.686;5.138;2023-12-07T02:50:10;17.00;;;10.87;;
77061;SDS011;65989;51.686;5.138;2023-12-07T02:52:37;18.20;;;11.32;;
77061;SDS011;65989;51.686;5.138;2023-12-07T02:55:03;22.83;;;13.20;;
77061;SDS011;65989;51.686;5.138;2023-12-07T02:57:28;23.35;;;13.65;;
77061;SDS011;65989;51.686;5.138;2023-12-07T02:59:54;24.40;;;13.43;;
77061;SDS011;65989;51.686;5.138;2023-12-07T03:02:20;22.42;;;14.43;;
77061;SDS011;65989;51.686;5.138;2023-12-07T03:04:46;33.73;;;16.50;;
77061;SDS011;65989;51.686;5.138;2023-12-07T03:07:11;28.47;;;14.90;;
77061;SDS011;65989;51.686;5.138;2023-12-07T03:09:37;55.75;;;17.20;;
77061;SDS011;65989;51.686;5.138;2023-12-07T03:12:02;64.80;;;17.83;;
77061;SDS011;65989;51.686;5.138;2023-12-07T03:14:28;127.33;;;18.53;;
77061;SDS011;65989;51.686;5.138;2023-12-07T03:16:53;77.97;;;18.80;;
77061;SDS011;65989;51.686;5.138;2023-12-07T03:19:19;65.35;;;19.58;;
77061;SDS011;65989;51.686;5.138;2023-12-07T03:21:45;60.20;;;18.57;;
77061;SDS011;65989;51.686;5.138;2023-12-07T03:24:10;82.70;;;19.93;;
77061;SDS011;65989;51.686;5.138;2023-12-07T03:26:36;92.15;;;20.23;;
77061;SDS011;65989;51.686;5.138;2023-12-07T03:29:02;92.03;;;19.70;;
77061;SDS011;65989;51.686;5.138;2023-12-07T03:31:27;63.72;;;18.98;;
77061;SDS011;65989;51.686;5.138;2023-12-07T03:33:53;59.47;;;18.57;;
77061;SDS011;65989;51.686;5.138;2023-12-07T03:36:18;72.90;;;19.48;;
77061;SDS011;65989;51.686;5.138;2023-12-07T03:38:44;80.10;;;19.07;;
77061;SDS011;65989;51.686;5.138;2023-12-07T03:41:09;103.73;;;20.73;;
77061;SDS011;65989;51.686;5.138;2023-12-07T03:43:34;69.00;;;18.97;;
77061;SDS011;65989;51.686;5.138;2023-12-07T03:46:03;72.77;;;19.37;;
77061;SDS011;65989;51.686;5.138;2023-12-07T03:48:29;76.70;;;19.85;;
77061;SDS011;65989;51.686;5.138;2023-12-07T03:50:55;105.53;;;21.90;;
77061;SDS011;65989;51.686;5.138;2023-12-07T03:53:20;75.88;;;18.73;;
77061;SDS011;65989;51.686;5.138;2023-12-07T03:55:46;64.07;;;19.30;;
77061;SDS011;65989;51.686;5.138;2023-12-07T03:58:11;79.90;;;19.47;;
77061;SDS011;65989;51.686;5.138;2023-12-07T04:00:38;76.32;;;20.77;;
77061;SDS011;65989;51.686;5.138;2023-12-07T04:03:04;73.28;;;19.95;;
77061;SDS011;65989;51.686;5.138;2023-12-07T04:05:29;53.43;;;19.73;;
77061;SDS011;65989;51.686;5.138;2023-12-07T04:07:55;106.85;;;20.10;;
77061;SDS011;65989;51.686;5.138;2023-12-07T04:10:21;76.13;;;19.70;;
77061;SDS011;65989;51.686;5.138;2023-12-07T04:12:46;73.60;;;20.27;;
77061;SDS011;65989;51.686;5.138;2023-12-07T04:15:12;64.13;;;19.03;;
77061;SDS011;65989;51.686;5.138;2023-12-07T04:17:37;67.33;;;20.57;;
77061;SDS011;65989;51.686;5.138;2023-12-07T04:20:03;83.93;;;19.40;;
77061;SDS011;65989;51.686;5.138;2023-12-07T04:22:29;62.38;;;19.42;;
77061;SDS011;65989;51.686;5.138;2023-12-07T04:24:54;61.60;;;19.93;;
77061;SDS011;65989;51.686;5.138;2023-12-07T04:27:19;98.07;;;20.37;;
77061;SDS011;65989;51.686;5.138;2023-12-07T04:29:45;65.57;;;20.20;;
77061;SDS011;65989;51.686;5.138;2023-12-07T04:32:10;78.57;;;19.20;;
77061;SDS011;65989;51.686;5.138;2023-12-07T04:34:36;62.27;;;20.00;;
77061;SDS011;65989;51.686;5.138;2023-12-07T04:37:01;58.97;;;18.33;;
77061;SDS011;65989;51.686;5.138;2023-12-07T04:39:27;66.68;;;19.48;;
77061;SDS011;65989;51.686;5.138;2023-12-07T04:41:53;49.77;;;18.10;;
77061;SDS011;65989;51.686;5.138;2023-12-07T04:44:19;68.10;;;18.20;;
77061;SDS011;65989;51.686;5.138;2023-12-07T04:46:44;55.90;;;18.33;;
77061;SDS011;65989;51.686;5.138;2023-12-07T04:49:10;82.23;;;18.57;;
77061;SDS011;65989;51.686;5.138;2023-12-07T04:51:35;68.75;;;17.13;;
77061;SDS011;65989;51.686;5.138;2023-12-07T04:54:01;77.07;;;16.57;;
77061;SDS011;65989;51.686;5.138;2023-12-07T04:56:26;63.80;;;17.20;;
77061;SDS011;65989;51.686;5.138;2023-12-07T04:58:52;67.72;;;16.92;;
77061;SDS011;65989;51.686;5.138;2023-12-07T05:01:17;82.57;;;17.40;;
77061;SDS011;65989;51.686;5.138;2023-12-07T05:03:44;121.07;;;17.08;;
77061;SDS011;65989;51.686;5.138;2023-12-07T05:06:09;55.23;;;17.40;;
77061;SDS011;65989;51.686;5.138;2023-12-07T05:08:35;73.82;;;15.57;;
77061;SDS011;65989;51.686;5.138;2023-12-07T05:11:00;91.63;;;16.17;;
77061;SDS011;65989;51.686;5.138;2023-12-07T05:13:26;90.03;;;13.73;;
77061;SDS011;65989;51.686;5.138;2023-12-07T05:15:51;105.87;;;15.23;;
77061;SDS011;65989;51.686;5.138;2023-12-07T05:18:16;60.23;;;14.10;;
77061;SDS011;65989;51.686;5.138;2023-12-07T05:20:42;52.97;;;13.95;;
77061;SDS011;65989;51.686;5.138;2023-12-07T05:23:08;57.97;;;14.63;;
77061;SDS011;65989;51.686;5.138;2023-12-07T05:25:33;89.47;;;14.02;;
77061;SDS011;65989;51.686;5.138;2023-12-07T05:27:59;32.97;;;10.90;;
77061;SDS011;65989;51.686;5.138;2023-12-07T05:30:24;47.40;;;12.03;;
77061;SDS011;65989;51.686;5.138;2023-12-07T05:32:50;34.33;;;11.60;;
77061;SDS011;65989;51.686;5.138;2023-12-07T05:35:15;83.23;;;12.03;;
77061;SDS011;65989;51.686;5.138;2023-12-07T05:37:41;61.83;;;10.77;;
77061;SDS011;65989;51.686;5.138;2023-12-07T05:40:07;110.93;;;12.40;;
77061;SDS011;65989;51.686;5.138;2023-12-07T05:42:33;46.73;;;11.73;;
77061;SDS011;65989;51.686;5.138;2023-12-07T05:44:58;60.50;;;11.45;;
77061;SDS011;65989;51.686;5.138;2023-12-07T05:47:24;77.63;;;11.87;;
77061;SDS011;65989;51.686;5.138;2023-12-07T05:49:51;54.92;;;10.85;;
77061;SDS011;65989;51.686;5.138;2023-12-07T05:52:16;52.57;;;10.33;;
77061;SDS011;65989;51.686;5.138;2023-12-07T05:54:41;61.97;;;10.83;;
77061;SDS011;65989;51.686;5.138;2023-12-07T05:57:08;40.60;;;9.13;;
77061;SDS011;65989;51.686;5.138;2023-12-07T05:59:36;58.17;;;11.40;;
77061;SDS011;65989;51.686;5.138;2023-12-07T06:02:03;49.53;;;10.93;;
77061;SDS011;65989;51.686;5.138;2023-12-07T06:04:29;41.15;;;10.00;;
77061;SDS011;65989;51.686;5.138;2023-12-07T06:06:55;29.83;;;9.48;;
77061;SDS011;65989;51.686;5.138;2023-12-07T06:09:20;30.17;;;10.30;;
77061;SDS011;65989;51.686;5.138;2023-12-07T06:11:46;44.40;;;10.33;;
77061;SDS011;65989;51.686;5.138;2023-12-07T06:14:11;45.00;;;9.80;;
77061;SDS011;65989;51.686;5.138;2023-12-07T06:16:36;28.00;;;9.30;;
77061;SDS011;65989;51.686;5.138;2023-12-07T06:19:02;37.75;;;9.90;;
77061;SDS011;65989;51.686;5.138;2023-12-07T06:21:28;34.07;;;10.33;;
77061;SDS011;65989;51.686;5.138;2023-12-07T06:23:55;32.42;;;9.15;;
77061;SDS011;65989;51.686;5.138;2023-12-07T06:26:21;31.88;;;9.98;;
77061;SDS011;65989;51.686;5.138;2023-12-07T06:28:46;20.50;;;9.00;;
77061;SDS011;65989;51.686;5.138;2023-12-07T06:31:12;55.03;;;11.23;;
77061;SDS011;65989;51.686;5.138;2023-12-07T06:33:40;58.28;;;10.48;;
77061;SDS011;65989;51.686;5.138;2023-12-07T06:36:05;45.27;;;10.47;;
77061;SDS011;65989;51.686;5.138;2023-12-07T06:38:31;35.40;;;10.90;;
77061;SDS011;65989;51.686;5.138;2023-12-07T06:40:56;53.83;;;10.60;;
77061;SDS011;65989;51.686;5.138;2023-12-07T06:43:22;46.47;;;9.70;;
77061;SDS011;65989;51.686;5.138;2023-12-07T06:45:47;34.83;;;10.73;;
77061;SDS011;65989;51.686;5.138;2023-12-07T06:48:13;47.60;;;10.37;;
77061;SDS011;65989;51.686;5.138;2023-12-07T06:50:39;45.57;;;10.43;;
77061;SDS011;65989;51.686;5.138;2023-12-07T06:53:04;45.63;;;10.60;;
77061;SDS011;65989;51.686;5.138;2023-12-07T06:55:29;40.23;;;10.70;;
77061;SDS011;65989;51.686;5.138;2023-12-07T06:57:55;40.93;;;11.13;;
77061;SDS011;65989;51.686;5.138;2023-12-07T07:00:21;52.20;;;10.97;;
77061;SDS011;65989;51.686;5.138;2023-12-07T07:02:46;41.58;;;10.90;;
77061;SDS011;65989;51.686;5.138;2023-12-07T07:05:12;40.43;;;12.23;;
77061;SDS011;65989;51.686;5.138;2023-12-07T07:07:38;43.42;;;12.02;;
77061;SDS011;65989;51.686;5.138;2023-12-07T07:10:03;51.93;;;11.50;;
77061;SDS011;65989;51.686;5.138;2023-12-07T07:12:29;40.40;;;11.80;;
77061;SDS011;65989;51.686;5.138;2023-12-07T07:14:55;54.20;;;12.02;;
77061;SDS011;65989;51.686;5.138;2023-12-07T07:17:21;65.37;;;12.40;;
77061;SDS011;65989;51.686;5.138;2023-12-07T07:19:46;47.10;;;13.80;;
77061;SDS011;65989;51.686;5.138;2023-12-07T07:22:12;40.77;;;12.87;;
77061;SDS011;65989;51.686;5.138;2023-12-07T07:24:37;41.30;;;12.33;;
77061;SDS011;65989;51.686;5.138;2023-12-07T07:27:02;59.50;;;12.97;;
77061;SDS011;65989;51.686;5.138;2023-12-07T07:29:28;58.60;;;13.90;;
77061;SDS011;65989;51.686;5.138;2023-12-07T07:31:53;76.22;;;14.95;;
77061;SDS011;65989;51.686;5.138;2023-12-07T07:34:20;47.28;;;14.13;;
77061;SDS011;65989;51.686;5.138;2023-12-07T07:36:46;44.20;;;14.87;;
77061;SDS011;65989;51.686;5.138;2023-12-07T07:39:11;60.80;;;13.50;;
77061;SDS011;65989;51.686;5.138;2023-12-07T07:41:38;55.08;;;14.80;;
77061;SDS011;65989;51.686;5.138;2023-12-07T07:44:04;41.47;;;13.20;;
77061;SDS011;65989;51.686;5.138;2023-12-07T07:46:30;43.47;;;14.23;;
77061;SDS011;65989;51.686;5.138;2023-12-07T07:48:55;57.37;;;15.00;;
77061;SDS011;65989;51.686;5.138;2023-12-07T07:51:20;53.27;;;14.33;;
77061;SDS011;65989;51.686;5.138;2023-12-07T07:53:46;51.17;;;15.57;;
77061;SDS011;65989;51.686;5.138;2023-12-07T07:56:14;58.65;;;15.57;;
77061;SDS011;65989;51.686;5.138;2023-12-07T07:58:39;97.03;;;16.07;;
77061;SDS011;65989;51.686;5.138;2023-12-07T08:01:05;67.00;;;15.87;;
77061;SDS011;65989;51.686;5.138;2023-12-07T08:03:30;44.35;;;12.77;;
77061;SDS011;65989;51.686;5.138;2023-12-07T08:05:56;63.80;;;14.67;;
77061;SDS011;65989;51.686;5.138;2023-12-07T08:08:21;50.97;;;12.27;;
77061;SDS011;65989;51.686;5.138;2023-12-07T08:10:47;60.28;;;13.20;;
77061;SDS011;65989;51.686;5.138;2023-12-07T08:13:12;46.97;;;14.13;;
77061;SDS011;65989;51.686;5.138;2023-12-07T08:15:38;41.67;;;13.47;;
77061;SDS011;65989;51.686;5.138;2023-12-07T08:18:03;48.08;;;14.60;;
77061;SDS011;65989;51.686;5.138;2023-12-07T08:20:29;53.17;;;14.20;;
77061;SDS011;65989;51.686;5.138;2023-12-07T08:22:54;42.03;;;14.07;;
77061;SDS011;65989;51.686;5.138;2023-12-07T08:25:20;38.57;;;12.40;;
77061;SDS011;65989;51.686;5.138;2023-12-07T08:27:46;45.05;;;12.60;;
77061;SDS011;65989;51.686;5.138;2023-12-07T08:30:12;36.20;;;13.98;;
77061;SDS011;65989;51.686;5.138;2023-12-07T08:32:38;42.70;;;13.15;;
77061;SDS011;65989;51.686;5.138;2023-12-07T08:35:04;47.67;;;12.87;;
77061;SDS011;65989;51.686;5.138;2023-12-07T08:37:31;51.03;;;13.25;;
77061;SDS011;65989;51.686;5.138;2023-12-07T08:39:57;47.20;;;13.98;;
77061;SDS011;65989;51.686;5.138;2023-12-07T08:42:23;37.40;;;13.87;;
77061;SDS011;65989;51.686;5.138;2023-12-07T08:44:48;40.28;;;14.38;;
77061;SDS011;65989;51.686;5.138;2023-12-07T08:47:14;40.00;;;12.83;;
77061;SDS011;65989;51.686;5.138;2023-12-07T08:49:39;38.03;;;12.40;;
77061;SDS011;65989;51.686;5.138;2023-12-07T08:52:04;42.63;;;12.60;;
77061;SDS011;65989;51.686;5.138;2023-12-07T08:54:31;32.10;;;12.40;;
77061;SDS011;65989;51.686;5.138;2023-12-07T08:56:56;38.53;;;12.90;;
77061;SDS011;65989;51.686;5.138;2023-12-07T08:59:22;39.92;;;12.50;;
77061;SDS011;65989;51.686;5.138;2023-12-07T09:01:47;33.90;;;13.13;;
77061;SDS011;65989;51.686;5.138;2023-12-07T09:04:13;42.03;;;12.53;;
77061;SDS011;65989;51.686;5.138;2023-12-07T09:06:38;31.37;;;12.73;;
77061;SDS011;65989;51.686;5.138;2023-12-07T09:09:04;38.95;;;13.18;;
77061;SDS011;65989;51.686;5.138;2023-12-07T09:11:29;37.67;;;12.67;;
77061;SDS011;65989;51.686;5.138;2023-12-07T09:13:55;27.13;;;11.98;;
77061;SDS011;65989;51.686;5.138;2023-12-07T09:16:21;34.83;;;13.23;;
77061;SDS011;65989;51.686;5.138;2023-12-07T09:18:47;32.57;;;14.23;;
77061;SDS011;65989;51.686;5.138;2023-12-07T09:21:12;38.88;;;14.82;;
77061;SDS011;65989;51.686;5.138;2023-12-07T09:23:38;32.67;;;14.93;;
77061;SDS011;65989;51.686;5.138;2023-12-07T09:26:03;39.10;;;15.10;;
77061;SDS011;65989;51.686;5.138;2023-12-07T09:28:29;39.97;;;14.63;;
77061;SDS011;65989;51.686;5.138;2023-12-07T09:30:54;52.73;;;15.83;;
77061;SDS011;65989;51.686;5.138;2023-12-07T09:33:20;37.87;;;15.37;;
77061;SDS011;65989;51.686;5.138;2023-12-07T09:35:45;41.47;;;15.67;;
77061;SDS011;65989;51.686;5.138;2023-12-07T09:38:10;39.23;;;14.73;;
77061;SDS011;65989;51.686;5.138;2023-12-07T09:40:36;37.70;;;14.87;;
77061;SDS011;65989;51.686;5.138;2023-12-07T09:43:01;40.80;;;16.25;;
77061;SDS011;65989;51.686;5.138;2023-12-07T09:45:27;34.63;;;15.13;;
77061;SDS011;65989;51.686;5.138;2023-12-07T09:47:53;36.38;;;14.63;;
77061;SDS011;65989;51.686;5.138;2023-12-07T09:50:20;35.73;;;15.07;;
77061;SDS011;65989;51.686;5.138;2023-12-07T09:52:47;36.40;;;15.77;;
77061;SDS011;65989;51.686;5.138;2023-12-07T09:55:17;33.38;;;14.95;;
77061;SDS011;65989;51.686;5.138;2023-12-07T09:57:43;33.70;;;14.52;;
77061;SDS011;65989;51.686;5.138;2023-12-07T10:00:10;37.03;;;14.93;;
77061;SDS011;65989;51.686;5.138;2023-12-07T10:02:39;38.80;;;14.77;;
77061;SDS011;65989;51.686;5.138;2023-12-07T10:05:06;34.45;;;15.05;;
77061;SDS011;65989;51.686;5.138;2023-12-07T10:07:35;40.92;;;16.05;;
77061;SDS011;65989;51.686;5.138;2023-12-07T10:10:03;41.50;;;17.58;;
77061;SDS011;65989;51.686;5.138;2023-12-07T10:12:32;44.17;;;17.25;;
77061;SDS011;65989;51.686;5.138;2023-12-07T10:15:00;39.10;;;16.93;;
77061;SDS011;65989;51.686;5.138;2023-12-07T10:17:44;44.15;;;16.52;;
77061;SDS011;65989;51.686;5.138;2023-12-07T10:20:13;40.70;;;16.13;;
77061;SDS011;65989;51.686;5.138;2023-12-07T10:23:03;37.63;;;14.32;;
77061;SDS011;65989;51.686;5.138;2023-12-07T10:25:30;37.60;;;14.65;;
77061;SDS011;65989;51.686;5.138;2023-12-07T10:27:56;36.10;;;14.37;;
77061;SDS011;65989;51.686;5.138;2023-12-07T10:30:22;25.67;;;12.05;;
77061;SDS011;65989;51.686;5.138;2023-12-07T10:32:53;35.17;;;14.47;;
77061;SDS011;65989;51.686;5.138;2023-12-07T10:35:19;34.40;;;13.63;;
77061;SDS011;65989;51.686;5.138;2023-12-07T10:37:45;33.63;;;13.68;;
77061;SDS011;65989;51.686;5.138;2023-12-07T10:40:12;32.55;;;13.82;;
77061;SDS011;65989;51.686;5.138;2023-12-07T10:42:37;29.87;;;12.80;;
77061;SDS011;65989;51.686;5.138;2023-12-07T10:45:06;35.42;;;14.60;;
77061;SDS011;65989;51.686;5.138;2023-12-07T10:47:33;31.52;;;13.02;;
77061;SDS011;65989;51.686;5.138;2023-12-07T10:50:01;30.70;;;13.35;;
77061;SDS011;65989;51.686;5.138;2023-12-07T10:52:30;33.40;;;15.23;;
77061;SDS011;65989;51.686;5.138;2023-12-07T10:57:23;29.37;;;14.03;;
77061;SDS011;65989;51.686;5.138;2023-12-07T10:59:50;30.33;;;14.30;;
77061;SDS011;65989;51.686;5.138;2023-12-07T11:02:17;32.05;;;14.27;;
77061;SDS011;65989;51.686;5.138;2023-12-07T11:04:46;29.00;;;13.45;;
77061;SDS011;65989;51.686;5.138;2023-12-07T11:07:13;29.87;;;13.97;;
77061;SDS011;65989;51.686;5.138;2023-12-07T11:09:45;31.67;;;14.77;;
77061;SDS011;65989;51.686;5.138;2023-12-07T11:12:17;33.28;;;14.65;;
77061;SDS011;65989;51.686;5.138;2023-12-07T11:14:51;32.03;;;14.90;;
77061;SDS011;65989;51.686;5.138;2023-12-07T11:17:17;29.17;;;14.00;;
77061;SDS011;65989;51.686;5.138;2023-12-07T11:19:43;31.55;;;14.55;;
77061;SDS011;65989;51.686;5.138;2023-12-07T11:22:12;30.35;;;14.25;;
77061;SDS011;65989;51.686;5.138;2023-12-07T11:25:12;34.40;;;14.90;;
77061;SDS011;65989;51.686;5.138;2023-12-07T11:27:31;32.25;;;15.60;;
77061;SDS011;65989;51.686;5.138;2023-12-07T11:30:01;31.75;;;15.50;;
77061;SDS011;65989;51.686;5.138;2023-12-07T11:32:27;34.53;;;14.55;;
77061;SDS011;65989;51.686;5.138;2023-12-07T11:34:53;38.27;;;15.60;;
77061;SDS011;65989;51.686;5.138;2023-12-07T11:37:19;34.85;;;15.30;;
77061;SDS011;65989;51.686;5.138;2023-12-07T11:39:45;32.27;;;15.30;;
77061;SDS011;65989;51.686;5.138;2023-12-07T11:42:17;35.70;;;16.17;;
77061;SDS011;65989;51.686;5.138;2023-12-07T11:44:44;30.73;;;14.65;;
77061;SDS011;65989;51.686;5.138;2023-12-07T11:47:19;33.10;;;15.20;;
77061;SDS011;65989;51.686;5.138;2023-12-07T11:49:46;31.75;;;15.63;;
77061;SDS011;65989;51.686;5.138;2023-12-07T11:52:19;32.33;;;14.00;;
77061;SDS011;65989;51.686;5.138;2023-12-07T11:54:45;33.38;;;15.07;;
77061;SDS011;65989;51.686;5.138;2023-12-07T11:57:13;32.38;;;14.50;;
77061;SDS011;65989;51.686;5.138;2023-12-07T11:59:39;32.50;;;14.90;;
77061;SDS011;65989;51.686;5.138;2023-12-07T12:02:05;37.33;;;15.85;;
77061;SDS011;65989;51.686;5.138;2023-12-07T12:04:30;32.60;;;14.33;;
77061;SDS011;65989;51.686;5.138;2023-12-07T12:06:55;28.37;;;14.37;;
77061;SDS011;65989;51.686;5.138;2023-12-07T12:09:22;24.83;;;12.32;;
77061;SDS011;65989;51.686;5.138;2023-12-07T12:11:49;30.27;;;15.20;;
77061;SDS011;65989;51.686;5.138;2023-12-07T12:14:18;31.08;;;14.25;;
77061;SDS011;65989;51.686;5.138;2023-12-07T12:16:45;29.35;;;14.43;;
77061;SDS011;65989;51.686;5.138;2023-12-07T12:19:21;32.50;;;15.93;;
77061;SDS011;65989;51.686;5.138;2023-12-07T12:21:47;36.87;;;16.80;;
77061;SDS011;65989;51.686;5.138;2023-12-07T12:24:16;32.33;;;15.48;;
77061;SDS011;65989;51.686;5.138;2023-12-07T12:26:42;31.53;;;15.13;;
77061;SDS011;65989;51.686;5.138;2023-12-07T12:29:09;30.92;;;13.93;;
77061;SDS011;65989;51.686;5.138;2023-12-07T12:31:35;31.35;;;14.10;;
77061;SDS011;65989;51.686;5.138;2023-12-07T12:34:06;25.80;;;12.98;;
77061;SDS011;65989;51.686;5.138;2023-12-07T12:36:33;32.60;;;13.87;;
77061;SDS011;65989;51.686;5.138;2023-12-07T12:38:59;26.50;;;13.43;;
77061;SDS011;65989;51.686;5.138;2023-12-07T12:41:25;28.70;;;13.48;;
77061;SDS011;65989;51.686;5.138;2023-12-07T12:43:51;28.10;;;12.83;;
77061;SDS011;65989;51.686;5.138;2023-12-07T12:46:17;31.90;;;13.80;;
77061;SDS011;65989;51.686;5.138;2023-12-07T12:48:52;29.60;;;14.37;;
77061;SDS011;65989;51.686;5.138;2023-12-07T12:51:23;29.85;;;13.70;;
77061;SDS011;65989;51.686;5.138;2023-12-07T12:53:52;27.40;;;13.80;;
77061;SDS011;65989;51.686;5.138;2023-12-07T12:56:19;29.87;;;13.33;;
77061;SDS011;65989;51.686;5.138;2023-12-07T12:58:46;32.50;;;14.65;;
77061;SDS011;65989;51.686;5.138;2023-12-07T13:01:15;30.92;;;14.40;;
77061;SDS011;65989;51.686;5.138;2023-12-07T13:03:45;34.40;;;16.63;;
77061;SDS011;65989;51.686;5.138;2023-12-07T13:06:14;28.45;;;14.95;;
77061;SDS011;65989;51.686;5.138;2023-12-07T13:08:43;31.33;;;15.10;;
77061;SDS011;65989;51.686;5.138;2023-12-07T13:11:09;29.42;;;14.52;;
77061;SDS011;65989;51.686;5.138;2023-12-07T13:13:34;30.40;;;14.90;;
77061;SDS011;65989;51.686;5.138;2023-12-07T13:16:00;31.60;;;14.50;;
77061;SDS011;65989;51.686;5.138;2023-12-07T13:18:25;31.70;;;16.10;;
77061;SDS011;65989;51.686;5.138;2023-12-07T13:20:51;28.13;;;14.33;;
77061;SDS011;65989;51.686;5.138;2023-12-07T13:23:16;30.60;;;15.63;;
77061;SDS011;65989;51.686;5.138;2023-12-07T13:25:41;28.42;;;15.35;;
77061;SDS011;65989;51.686;5.138;2023-12-07T13:28:07;31.27;;;15.30;;
77061;SDS011;65989;51.686;5.138;2023-12-07T13:30:33;26.90;;;14.15;;
77061;SDS011;65989;51.686;5.138;2023-12-07T13:33:00;30.20;;;14.77;;
77061;SDS011;65989;51.686;5.138;2023-12-07T13:35:26;32.35;;;15.85;;
77061;SDS011;65989;51.686;5.138;2023-12-07T13:37:51;30.83;;;15.43;;
77061;SDS011;65989;51.686;5.138;2023-12-07T13:40:17;32.00;;;16.00;;
77061;SDS011;65989;51.686;5.138;2023-12-07T13:42:42;30.87;;;15.37;;
77061;SDS011;65989;51.686;5.138;2023-12-07T13:45:08;29.57;;;15.50;;
77061;SDS011;65989;51.686;5.138;2023-12-07T13:47:33;31.70;;;15.90;;
77061;SDS011;65989;51.686;5.138;2023-12-07T13:50:02;32.60;;;16.43;;
77061;SDS011;65989;51.686;5.138;2023-12-07T13:52:29;33.00;;;16.73;;
77061;SDS011;65989;51.686;5.138;2023-12-07T13:54:55;31.58;;;15.93;;
77061;SDS011;65989;51.686;5.138;2023-12-07T13:57:21;30.65;;;16.63;;
77061;SDS011;65989;51.686;5.138;2023-12-07T13:59:49;30.58;;;15.85;;
77061;SDS011;65989;51.686;5.138;2023-12-07T14:02:15;31.13;;;14.77;;
77061;SDS011;65989;51.686;5.138;2023-12-07T14:04:41;28.00;;;15.00;;
77061;SDS011;65989;51.686;5.138;2023-12-07T14:07:16;37.50;;;19.63;;
77061;SDS011;65989;51.686;5.138;2023-12-07T14:09:49;40.90;;;18.85;;
77061;SDS011;65989;51.686;5.138;2023-12-07T14:12:15;35.70;;;17.33;;
77061;SDS011;65989;51.686;5.138;2023-12-07T14:14:41;41.03;;;20.00;;
77061;SDS011;65989;51.686;5.138;2023-12-07T14:17:14;32.63;;;16.77;;
77061;SDS011;65989;51.686;5.138;2023-12-07T14:19:40;31.80;;;15.18;;
77061;SDS011;65989;51.686;5.138;2023-12-07T14:22:06;28.30;;;15.05;;